sensor_id;sensor_type;location;lat;lon;timestamp;temperature;humidity
4433;DHT22;2229;48.708;9.706;2023-02-04T00:00:18;6.50;99.90
4433;DHT22;2229;48.708;9.706;2023-02-04T00:02:45;6.50;99.90
4433;DHT22;2229;48.708;9.706;2023-02-04T00:05:13;6.50;99.90
4433;DHT22;2229;48.708;9.706;2023-02-04T00:07:44;6.50;99.90
4433;DHT22;2229;48.708;9.706;2023-02-04T00:10:12;6.50;99.90
4433;DHT22;2229;48.708;9.706;2023-02-04T00:12:39;6.50;99.90
4433;DHT22;2229;48.708;9.706;2023-02-04T00:15:07;6.60;99.90
4433;DHT22;2229;48.708;9.706;2023-02-04T00:17:35;6.50;99.90
4433;DHT22;2229;48.708;9.706;2023-02-04T00:20:04;6.60;99.90
4433;DHT22;2229;48.708;9.706;2023-02-04T00:22:32;6.60;99.90
4433;DHT22;2229;48.708;9.706;2023-02-04T00:25:00;6.60;99.90
4433;DHT22;2229;48.708;9.706;2023-02-04T00:27:28;6.60;99.90
4433;DHT22;2229;48.708;9.706;2023-02-04T00:29:56;6.70;99.90
4433;DHT22;2229;48.708;9.706;2023-02-04T00:32:23;6.70;99.90
4433;DHT22;2229;48.708;9.706;2023-02-04T00:34:53;6.80;99.90
4433;DHT22;2229;48.708;9.706;2023-02-04T00:37:20;6.90;99.90
4433;DHT22;2229;48.708;9.706;2023-02-04T00:39:48;6.90;99.90
4433;DHT22;2229;48.708;9.706;2023-02-04T00:42:16;7.00;99.90
4433;DHT22;2229;48.708;9.706;2023-02-04T00:44:43;7.00;99.90
4433;DHT22;2229;48.708;9.706;2023-02-04T00:47:11;7.10;99.90
4433;DHT22;2229;48.708;9.706;2023-02-04T00:49:39;7.10;99.90
4433;DHT22;2229;48.708;9.706;2023-02-04T00:52:06;7.10;99.90
4433;DHT22;2229;48.708;9.706;2023-02-04T00:54:33;7.10;99.90
4433;DHT22;2229;48.708;9.706;2023-02-04T00:57:00;7.10;99.90
4433;DHT22;2229;48.708;9.706;2023-02-04T00:59:30;7.10;99.90
4433;DHT22;2229;48.708;9.706;2023-02-04T01:01:57;7.10;99.90
4433;DHT22;2229;48.708;9.706;2023-02-04T01:04:28;7.10;99.90
4433;DHT22;2229;48.708;9.706;2023-02-04T01:06:55;7.10;99.90
4433;DHT22;2229;48.708;9.706;2023-02-04T01:09:23;7.10;99.90
4433;DHT22;2229;48.708;9.706;2023-02-04T01:11:50;7.20;99.90
4433;DHT22;2229;48.708;9.706;2023-02-04T01:14:17;7.20;99.90
4433;DHT22;2229;48.708;9.706;2023-02-04T01:16:46;7.20;99.90
4433;DHT22;2229;48.708;9.706;2023-02-04T01:19:13;7.10;99.90
4433;DHT22;2229;48.708;9.706;2023-02-04T01:21:41;7.20;99.90
4433;DHT22;2229;48.708;9.706;2023-02-04T01:24:10;7.10;99.90
4433;DHT22;2229;48.708;9.706;2023-02-04T01:26:57;7.10;99.90
4433;DHT22;2229;48.708;9.706;2023-02-04T01:29:24;7.10;99.90
4433;DHT22;2229;48.708;9.706;2023-02-04T01:31:54;7.10;99.90
4433;DHT22;2229;48.708;9.706;2023-02-04T01:34:23;7.10;99.90
4433;DHT22;2229;48.708;9.706;2023-02-04T01:36:51;7.10;99.90
4433;DHT22;2229;48.708;9.706;2023-02-04T01:39:19;7.10;99.90
4433;DHT22;2229;48.708;9.706;2023-02-04T01:41:47;7.20;99.90
4433;DHT22;2229;48.708;9.706;2023-02-04T01:44:14;7.20;99.90
4433;DHT22;2229;48.708;9.706;2023-02-04T01:46:42;7.20;99.90
4433;DHT22;2229;48.708;9.706;2023-02-04T01:49:13;7.20;99.90
4433;DHT22;2229;48.708;9.706;2023-02-04T01:51:41;7.20;99.90
4433;DHT22;2229;48.708;9.706;2023-02-04T01:54:10;7.20;99.90
4433;DHT22;2229;48.708;9.706;2023-02-04T01:56:39;7.20;99.90
4433;DHT22;2229;48.708;9.706;2023-02-04T01:59:10;7.10;99.90
4433;DHT22;2229;48.708;9.706;2023-02-04T02:01:40;7.10;99.90
4433;DHT22;2229;48.708;9.706;2023-02-04T02:04:09;7.10;99.90
4433;DHT22;2229;48.708;9.706;2023-02-04T02:06:40;7.10;99.90
4433;DHT22;2229;48.708;9.706;2023-02-04T02:09:10;7.10;99.90
4433;DHT22;2229;48.708;9.706;2023-02-04T02:11:37;7.10;99.90
4433;DHT22;2229;48.708;9.706;2023-02-04T02:14:05;7.10;99.90
4433;DHT22;2229;48.708;9.706;2023-02-04T02:16:32;7.10;99.90
4433;DHT22;2229;48.708;9.706;2023-02-04T02:18:59;7.10;99.90
4433;DHT22;2229;48.708;9.706;2023-02-04T02:21:32;7.10;99.90
4433;DHT22;2229;48.708;9.706;2023-02-04T02:24:25;7.10;99.90
4433;DHT22;2229;48.708;9.706;2023-02-04T02:26:53;7.10;99.90
4433;DHT22;2229;48.708;9.706;2023-02-04T02:29:24;7.10;99.90
4433;DHT22;2229;48.708;9.706;2023-02-04T02:31:53;7.10;99.90
4433;DHT22;2229;48.708;9.706;2023-02-04T02:34:25;7.00;99.90
4433;DHT22;2229;48.708;9.706;2023-02-04T02:36:53;7.00;99.90
4433;DHT22;2229;48.708;9.706;2023-02-04T02:39:24;7.00;99.90
4433;DHT22;2229;48.708;9.706;2023-02-04T02:41:52;7.00;99.90
4433;DHT22;2229;48.708;9.706;2023-02-04T02:44:19;7.00;99.90
4433;DHT22;2229;48.708;9.706;2023-02-04T02:46:47;7.00;99.90
4433;DHT22;2229;48.708;9.706;2023-02-04T02:49:16;7.00;99.90
4433;DHT22;2229;48.708;9.706;2023-02-04T02:51:44;7.00;99.90
4433;DHT22;2229;48.708;9.706;2023-02-04T02:54:19;7.00;99.90
4433;DHT22;2229;48.708;9.706;2023-02-04T02:56:50;7.00;99.90
4433;DHT22;2229;48.708;9.706;2023-02-04T02:59:20;7.10;99.90
4433;DHT22;2229;48.708;9.706;2023-02-04T03:01:51;7.10;99.90
4433;DHT22;2229;48.708;9.706;2023-02-04T03:04:21;7.10;99.90
4433;DHT22;2229;48.708;9.706;2023-02-04T03:06:49;7.10;99.90
4433;DHT22;2229;48.708;9.706;2023-02-04T03:09:18;7.10;99.90
4433;DHT22;2229;48.708;9.706;2023-02-04T03:11:47;7.10;99.90
4433;DHT22;2229;48.708;9.706;2023-02-04T03:14:16;7.10;99.90
4433;DHT22;2229;48.708;9.706;2023-02-04T03:16:44;7.10;99.90
4433;DHT22;2229;48.708;9.706;2023-02-04T03:19:12;7.10;99.90
4433;DHT22;2229;48.708;9.706;2023-02-04T03:21:40;7.10;99.90
4433;DHT22;2229;48.708;9.706;2023-02-04T03:24:07;7.10;99.90
4433;DHT22;2229;48.708;9.706;2023-02-04T03:26:36;7.10;99.90
4433;DHT22;2229;48.708;9.706;2023-02-04T03:29:06;7.00;99.90
4433;DHT22;2229;48.708;9.706;2023-02-04T03:31:35;7.10;99.90
4433;DHT22;2229;48.708;9.706;2023-02-04T03:34:04;7.10;99.90
4433;DHT22;2229;48.708;9.706;2023-02-04T03:36:32;7.00;99.90
4433;DHT22;2229;48.708;9.706;2023-02-04T03:39:00;7.00;99.90
4433;DHT22;2229;48.708;9.706;2023-02-04T03:41:27;7.00;99.90
4433;DHT22;2229;48.708;9.706;2023-02-04T03:43:55;7.00;99.90
4433;DHT22;2229;48.708;9.706;2023-02-04T03:46:22;7.00;99.90
4433;DHT22;2229;48.708;9.706;2023-02-04T03:48:52;7.00;99.90
4433;DHT22;2229;48.708;9.706;2023-02-04T03:51:19;7.00;99.90
4433;DHT22;2229;48.708;9.706;2023-02-04T03:53:46;7.00;99.90
4433;DHT22;2229;48.708;9.706;2023-02-04T03:56:13;7.00;99.90
4433;DHT22;2229;48.708;9.706;2023-02-04T03:58:40;7.00;99.90
4433;DHT22;2229;48.708;9.706;2023-02-04T04:01:07;7.00;99.90
4433;DHT22;2229;48.708;9.706;2023-02-04T04:03:35;7.00;99.90
4433;DHT22;2229;48.708;9.706;2023-02-04T04:06:04;7.00;99.90
4433;DHT22;2229;48.708;9.706;2023-02-04T04:08:33;7.00;99.90
4433;DHT22;2229;48.708;9.706;2023-02-04T04:11:01;7.00;99.90
4433;DHT22;2229;48.708;9.706;2023-02-04T04:13:29;7.00;99.90
4433;DHT22;2229;48.708;9.706;2023-02-04T04:15:56;7.00;99.90
4433;DHT22;2229;48.708;9.706;2023-02-04T04:18:23;6.90;99.90
4433;DHT22;2229;48.708;9.706;2023-02-04T04:20:50;6.90;99.90
4433;DHT22;2229;48.708;9.706;2023-02-04T04:23:19;6.90;99.90
4433;DHT22;2229;48.708;9.706;2023-02-04T04:25:46;6.90;99.90
4433;DHT22;2229;48.708;9.706;2023-02-04T04:28:14;6.90;99.90
4433;DHT22;2229;48.708;9.706;2023-02-04T04:30:41;6.90;99.90
4433;DHT22;2229;48.708;9.706;2023-02-04T04:33:09;6.90;99.90
4433;DHT22;2229;48.708;9.706;2023-02-04T04:35:37;6.90;99.90
4433;DHT22;2229;48.708;9.706;2023-02-04T04:38:04;6.90;99.90
4433;DHT22;2229;48.708;9.706;2023-02-04T04:40:33;6.90;99.90
4433;DHT22;2229;48.708;9.706;2023-02-04T04:43:00;6.90;99.90
4433;DHT22;2229;48.708;9.706;2023-02-04T04:45:27;6.90;99.90
4433;DHT22;2229;48.708;9.706;2023-02-04T04:47:54;6.90;99.90
4433;DHT22;2229;48.708;9.706;2023-02-04T04:50:21;6.90;99.90
4433;DHT22;2229;48.708;9.706;2023-02-04T04:52:49;6.90;99.90
4433;DHT22;2229;48.708;9.706;2023-02-04T04:55:16;7.20;99.90
4433;DHT22;2229;48.708;9.706;2023-02-04T04:57:45;6.90;99.90
4433;DHT22;2229;48.708;9.706;2023-02-04T05:00:16;6.90;99.90
4433;DHT22;2229;48.708;9.706;2023-02-04T05:02:43;6.90;99.90
4433;DHT22;2229;48.708;9.706;2023-02-04T05:05:11;6.90;99.90
4433;DHT22;2229;48.708;9.706;2023-02-04T05:07:38;6.80;99.90
4433;DHT22;2229;48.708;9.706;2023-02-04T05:10:07;6.80;99.90
4433;DHT22;2229;48.708;9.706;2023-02-04T05:12:34;6.80;99.90
4433;DHT22;2229;48.708;9.706;2023-02-04T05:15:04;6.90;99.90
4433;DHT22;2229;48.708;9.706;2023-02-04T05:17:31;6.90;99.90
4433;DHT22;2229;48.708;9.706;2023-02-04T05:19:58;6.90;99.90
4433;DHT22;2229;48.708;9.706;2023-02-04T05:22:26;6.80;99.90
4433;DHT22;2229;48.708;9.706;2023-02-04T05:24:53;6.80;99.90
4433;DHT22;2229;48.708;9.706;2023-02-04T05:27:21;6.80;99.90
4433;DHT22;2229;48.708;9.706;2023-02-04T05:29:49;7.00;99.90
4433;DHT22;2229;48.708;9.706;2023-02-04T05:32:18;6.80;99.90
4433;DHT22;2229;48.708;9.706;2023-02-04T05:34:45;6.80;99.90
4433;DHT22;2229;48.708;9.706;2023-02-04T05:37:12;6.80;99.90
4433;DHT22;2229;48.708;9.706;2023-02-04T05:39:42;6.80;99.90
4433;DHT22;2229;48.708;9.706;2023-02-04T05:42:09;6.80;99.90
4433;DHT22;2229;48.708;9.706;2023-02-04T05:44:36;6.80;99.90
4433;DHT22;2229;48.708;9.706;2023-02-04T05:47:04;6.80;99.90
4433;DHT22;2229;48.708;9.706;2023-02-04T05:49:33;6.80;99.90
4433;DHT22;2229;48.708;9.706;2023-02-04T05:52:00;6.80;99.90
4433;DHT22;2229;48.708;9.706;2023-02-04T05:54:28;6.70;99.90
4433;DHT22;2229;48.708;9.706;2023-02-04T05:56:55;6.70;99.90
4433;DHT22;2229;48.708;9.706;2023-02-04T05:59:23;6.60;99.90
4433;DHT22;2229;48.708;9.706;2023-02-04T06:01:50;6.60;99.90
4433;DHT22;2229;48.708;9.706;2023-02-04T06:04:18;6.60;99.90
4433;DHT22;2229;48.708;9.706;2023-02-04T06:06:47;6.60;99.90
4433;DHT22;2229;48.708;9.706;2023-02-04T06:09:14;6.60;99.90
4433;DHT22;2229;48.708;9.706;2023-02-04T06:11:41;6.50;99.90
4433;DHT22;2229;48.708;9.706;2023-02-04T06:14:09;6.50;99.90
4433;DHT22;2229;48.708;9.706;2023-02-04T06:16:37;6.50;99.90
4433;DHT22;2229;48.708;9.706;2023-02-04T06:19:04;6.50;99.90
4433;DHT22;2229;48.708;9.706;2023-02-04T06:21:31;6.40;99.90
4433;DHT22;2229;48.708;9.706;2023-02-04T06:24:00;6.40;99.90
4433;DHT22;2229;48.708;9.706;2023-02-04T06:26:27;6.50;99.90
4433;DHT22;2229;48.708;9.706;2023-02-04T06:28:54;6.30;99.90
4433;DHT22;2229;48.708;9.706;2023-02-04T06:31:22;6.20;99.90
4433;DHT22;2229;48.708;9.706;2023-02-04T06:33:49;6.20;99.90
4433;DHT22;2229;48.708;9.706;2023-02-04T06:36:17;6.10;99.90
4433;DHT22;2229;48.708;9.706;2023-02-04T06:38:44;6.00;99.90
4433;DHT22;2229;48.708;9.706;2023-02-04T06:41:12;6.10;99.90
4433;DHT22;2229;48.708;9.706;2023-02-04T06:43:40;6.00;99.90
4433;DHT22;2229;48.708;9.706;2023-02-04T06:46:08;6.00;99.90
4433;DHT22;2229;48.708;9.706;2023-02-04T06:48:35;6.00;99.90
4433;DHT22;2229;48.708;9.706;2023-02-04T06:51:03;5.90;99.90
4433;DHT22;2229;48.708;9.706;2023-02-04T06:53:30;5.90;99.90
4433;DHT22;2229;48.708;9.706;2023-02-04T06:55:58;5.90;99.90
4433;DHT22;2229;48.708;9.706;2023-02-04T06:58:26;5.90;99.90
4433;DHT22;2229;48.708;9.706;2023-02-04T07:00:53;5.90;99.90
4433;DHT22;2229;48.708;9.706;2023-02-04T07:03:20;5.90;99.90
4433;DHT22;2229;48.708;9.706;2023-02-04T07:05:48;5.90;99.90
4433;DHT22;2229;48.708;9.706;2023-02-04T07:08:15;5.90;99.90
4433;DHT22;2229;48.708;9.706;2023-02-04T07:10:43;5.90;99.90
4433;DHT22;2229;48.708;9.706;2023-02-04T07:13:11;5.90;99.90
4433;DHT22;2229;48.708;9.706;2023-02-04T07:15:39;5.90;99.90
4433;DHT22;2229;48.708;9.706;2023-02-04T07:18:07;5.90;99.90
4433;DHT22;2229;48.708;9.706;2023-02-04T07:20:34;5.90;99.90
4433;DHT22;2229;48.708;9.706;2023-02-04T07:23:01;6.00;99.90
4433;DHT22;2229;48.708;9.706;2023-02-04T07:25:29;6.00;99.90
4433;DHT22;2229;48.708;9.706;2023-02-04T07:27:56;6.00;99.90
4433;DHT22;2229;48.708;9.706;2023-02-04T07:30:24;6.00;99.90
4433;DHT22;2229;48.708;9.706;2023-02-04T07:32:53;6.00;99.90
4433;DHT22;2229;48.708;9.706;2023-02-04T07:35:20;6.10;99.90
4433;DHT22;2229;48.708;9.706;2023-02-04T07:37:47;6.20;99.90
4433;DHT22;2229;48.708;9.706;2023-02-04T07:40:15;6.20;99.90
4433;DHT22;2229;48.708;9.706;2023-02-04T07:42:42;6.30;99.90
4433;DHT22;2229;48.708;9.706;2023-02-04T07:45:15;6.30;99.90
4433;DHT22;2229;48.708;9.706;2023-02-04T07:47:42;6.30;99.90
4433;DHT22;2229;48.708;9.706;2023-02-04T07:50:11;6.40;99.90
4433;DHT22;2229;48.708;9.706;2023-02-04T07:52:39;6.40;99.90
4433;DHT22;2229;48.708;9.706;2023-02-04T07:55:07;6.40;99.90
4433;DHT22;2229;48.708;9.706;2023-02-04T07:57:35;6.40;99.90
4433;DHT22;2229;48.708;9.706;2023-02-04T08:00:03;6.40;99.90
4433;DHT22;2229;48.708;9.706;2023-02-04T08:02:38;6.40;99.90
4433;DHT22;2229;48.708;9.706;2023-02-04T08:05:07;6.40;99.90
4433;DHT22;2229;48.708;9.706;2023-02-04T08:07:36;6.50;99.90
4433;DHT22;2229;48.708;9.706;2023-02-04T08:10:03;6.50;99.90
4433;DHT22;2229;48.708;9.706;2023-02-04T08:12:31;6.50;99.90
4433;DHT22;2229;48.708;9.706;2023-02-04T08:14:59;6.50;99.90
4433;DHT22;2229;48.708;9.706;2023-02-04T08:17:27;6.50;99.90
4433;DHT22;2229;48.708;9.706;2023-02-04T08:19:55;6.60;99.90
4433;DHT22;2229;48.708;9.706;2023-02-04T08:22:23;6.60;99.90
4433;DHT22;2229;48.708;9.706;2023-02-04T08:24:51;6.60;99.90
4433;DHT22;2229;48.708;9.706;2023-02-04T08:27:19;6.60;99.90
4433;DHT22;2229;48.708;9.706;2023-02-04T08:29:46;6.60;99.90
4433;DHT22;2229;48.708;9.706;2023-02-04T08:32:13;6.70;99.90
4433;DHT22;2229;48.708;9.706;2023-02-04T08:34:41;6.80;99.90
4433;DHT22;2229;48.708;9.706;2023-02-04T08:37:08;6.90;99.90
4433;DHT22;2229;48.708;9.706;2023-02-04T08:39:36;6.90;99.90
4433;DHT22;2229;48.708;9.706;2023-02-04T08:42:07;7.00;99.90
4433;DHT22;2229;48.708;9.706;2023-02-04T08:44:34;7.00;99.90
4433;DHT22;2229;48.708;9.706;2023-02-04T08:47:01;7.00;99.90
4433;DHT22;2229;48.708;9.706;2023-02-04T08:49:29;7.00;99.90
4433;DHT22;2229;48.708;9.706;2023-02-04T08:51:56;7.00;99.90
4433;DHT22;2229;48.708;9.706;2023-02-04T08:54:24;7.10;99.90
4433;DHT22;2229;48.708;9.706;2023-02-04T08:56:52;7.10;99.90
4433;DHT22;2229;48.708;9.706;2023-02-04T08:59:20;7.10;99.90
4433;DHT22;2229;48.708;9.706;2023-02-04T09:01:49;7.10;99.90
4433;DHT22;2229;48.708;9.706;2023-02-04T09:04:17;7.20;99.90
4433;DHT22;2229;48.708;9.706;2023-02-04T09:06:45;7.20;99.90
4433;DHT22;2229;48.708;9.706;2023-02-04T09:09:12;7.20;99.90
4433;DHT22;2229;48.708;9.706;2023-02-04T09:11:40;7.20;99.90
4433;DHT22;2229;48.708;9.706;2023-02-04T09:14:08;7.20;99.90
4433;DHT22;2229;48.708;9.706;2023-02-04T09:16:37;7.30;99.90
4433;DHT22;2229;48.708;9.706;2023-02-04T09:19:05;7.30;99.90
4433;DHT22;2229;48.708;9.706;2023-02-04T09:21:35;7.30;99.90
4433;DHT22;2229;48.708;9.706;2023-02-04T09:24:03;7.30;99.90
4433;DHT22;2229;48.708;9.706;2023-02-04T09:26:30;7.30;99.90
4433;DHT22;2229;48.708;9.706;2023-02-04T09:28:59;7.30;99.90
4433;DHT22;2229;48.708;9.706;2023-02-04T09:31:26;7.30;99.90
4433;DHT22;2229;48.708;9.706;2023-02-04T09:33:54;7.30;99.90
4433;DHT22;2229;48.708;9.706;2023-02-04T09:36:22;7.30;99.90
4433;DHT22;2229;48.708;9.706;2023-02-04T09:38:54;7.40;99.90
4433;DHT22;2229;48.708;9.706;2023-02-04T09:41:21;7.40;99.90
4433;DHT22;2229;48.708;9.706;2023-02-04T09:43:49;7.40;99.90
4433;DHT22;2229;48.708;9.706;2023-02-04T09:46:19;7.40;99.90
4433;DHT22;2229;48.708;9.706;2023-02-04T09:48:48;7.50;99.90
4433;DHT22;2229;48.708;9.706;2023-02-04T09:51:19;7.50;99.90
4433;DHT22;2229;48.708;9.706;2023-02-04T09:53:48;7.50;99.90
4433;DHT22;2229;48.708;9.706;2023-02-04T09:56:19;7.50;99.90
4433;DHT22;2229;48.708;9.706;2023-02-04T09:58:46;7.60;99.90
4433;DHT22;2229;48.708;9.706;2023-02-04T10:01:15;7.60;99.90
4433;DHT22;2229;48.708;9.706;2023-02-04T10:03:44;7.70;99.90
4433;DHT22;2229;48.708;9.706;2023-02-04T10:06:13;7.70;99.90
4433;DHT22;2229;48.708;9.706;2023-02-04T10:08:45;7.80;99.90
4433;DHT22;2229;48.708;9.706;2023-02-04T10:11:13;7.80;99.90
4433;DHT22;2229;48.708;9.706;2023-02-04T10:13:43;7.90;99.90
4433;DHT22;2229;48.708;9.706;2023-02-04T10:16:14;8.00;99.90
4433;DHT22;2229;48.708;9.706;2023-02-04T10:18:43;8.10;99.90
4433;DHT22;2229;48.708;9.706;2023-02-04T10:21:15;8.10;99.90
4433;DHT22;2229;48.708;9.706;2023-02-04T10:23:47;8.20;99.90
4433;DHT22;2229;48.708;9.706;2023-02-04T10:26:15;8.40;99.90
4433;DHT22;2229;48.708;9.706;2023-02-04T10:28:43;8.50;99.90
4433;DHT22;2229;48.708;9.706;2023-02-04T10:31:28;8.70;99.90
4433;DHT22;2229;48.708;9.706;2023-02-04T10:34:10;8.80;99.90
4433;DHT22;2229;48.708;9.706;2023-02-04T10:36:39;9.00;99.90
4433;DHT22;2229;48.708;9.706;2023-02-04T10:39:13;9.00;99.90
4433;DHT22;2229;48.708;9.706;2023-02-04T10:41:47;9.00;99.80
4433;DHT22;2229;48.708;9.706;2023-02-04T10:44:18;8.90;99.00
4433;DHT22;2229;48.708;9.706;2023-02-04T10:46:46;8.90;99.00
4433;DHT22;2229;48.708;9.706;2023-02-04T10:49:18;8.70;98.10
4433;DHT22;2229;48.708;9.706;2023-02-04T10:51:46;8.60;98.00
4433;DHT22;2229;48.708;9.706;2023-02-04T10:54:17;8.60;98.10
4433;DHT22;2229;48.708;9.706;2023-02-04T10:57:07;8.50;97.90
4433;DHT22;2229;48.708;9.706;2023-02-04T10:59:38;8.50;98.20
4433;DHT22;2229;48.708;9.706;2023-02-04T11:02:35;8.50;98.00
4433;DHT22;2229;48.708;9.706;2023-02-04T11:05:08;8.50;98.10
4433;DHT22;2229;48.708;9.706;2023-02-04T11:07:37;8.60;98.20
4433;DHT22;2229;48.708;9.706;2023-02-04T11:10:11;8.70;98.40
4433;DHT22;2229;48.708;9.706;2023-02-04T11:12:41;8.90;98.00
4433;DHT22;2229;48.708;9.706;2023-02-04T11:15:41;8.90;97.20
4433;DHT22;2229;48.708;9.706;2023-02-04T11:18:25;9.00;96.90
4433;DHT22;2229;48.708;9.706;2023-02-04T11:20:54;8.80;95.80
4433;DHT22;2229;48.708;9.706;2023-02-04T11:23:32;8.80;96.00
4433;DHT22;2229;48.708;9.706;2023-02-04T11:26:32;8.80;96.30
4433;DHT22;2229;48.708;9.706;2023-02-04T11:29:25;8.80;96.30
4433;DHT22;2229;48.708;9.706;2023-02-04T11:32:01;8.70;96.10
4433;DHT22;2229;48.708;9.706;2023-02-04T11:34:45;8.60;95.40
4433;DHT22;2229;48.708;9.706;2023-02-04T11:37:16;8.50;95.30
4433;DHT22;2229;48.708;9.706;2023-02-04T11:39:44;8.30;95.10
4433;DHT22;2229;48.708;9.706;2023-02-04T11:42:20;8.10;95.30
4433;DHT22;2229;48.708;9.706;2023-02-04T11:44:52;8.00;96.30
4433;DHT22;2229;48.708;9.706;2023-02-04T11:47:22;7.90;96.70
4433;DHT22;2229;48.708;9.706;2023-02-04T11:49:54;7.80;97.10
4433;DHT22;2229;48.708;9.706;2023-02-04T11:52:22;7.80;97.30
4433;DHT22;2229;48.708;9.706;2023-02-04T11:54:54;7.80;97.40
4433;DHT22;2229;48.708;9.706;2023-02-04T11:57:23;7.80;97.10
4433;DHT22;2229;48.708;9.706;2023-02-04T11:59:50;7.70;97.00
4433;DHT22;2229;48.708;9.706;2023-02-04T12:02:19;7.70;97.10
4433;DHT22;2229;48.708;9.706;2023-02-04T12:04:51;7.80;96.80
4433;DHT22;2229;48.708;9.706;2023-02-04T12:07:27;7.80;96.50
4433;DHT22;2229;48.708;9.706;2023-02-04T12:09:55;7.90;96.50
4433;DHT22;2229;48.708;9.706;2023-02-04T12:12:26;7.90;96.00
4433;DHT22;2229;48.708;9.706;2023-02-04T12:15:00;7.90;95.70
4433;DHT22;2229;48.708;9.706;2023-02-04T12:17:29;8.00;95.90
4433;DHT22;2229;48.708;9.706;2023-02-04T12:19:56;8.10;95.40
4433;DHT22;2229;48.708;9.706;2023-02-04T12:22:24;8.10;94.80
4433;DHT22;2229;48.708;9.706;2023-02-04T12:24:51;8.10;94.90
4433;DHT22;2229;48.708;9.706;2023-02-04T12:27:18;8.10;94.90
4433;DHT22;2229;48.708;9.706;2023-02-04T12:29:49;8.10;95.10
4433;DHT22;2229;48.708;9.706;2023-02-04T12:32:16;8.20;95.20
4433;DHT22;2229;48.708;9.706;2023-02-04T12:34:43;8.10;94.70
4433;DHT22;2229;48.708;9.706;2023-02-04T12:37:11;8.10;94.50
4433;DHT22;2229;48.708;9.706;2023-02-04T12:39:38;8.00;94.70
4433;DHT22;2229;48.708;9.706;2023-02-04T12:42:05;8.00;94.80
4433;DHT22;2229;48.708;9.706;2023-02-04T12:44:33;8.00;94.80
4433;DHT22;2229;48.708;9.706;2023-02-04T12:47:02;8.10;94.90
4433;DHT22;2229;48.708;9.706;2023-02-04T12:49:29;8.10;94.90
4433;DHT22;2229;48.708;9.706;2023-02-04T12:51:57;8.20;95.10
4433;DHT22;2229;48.708;9.706;2023-02-04T12:54:27;8.20;95.00
4433;DHT22;2229;48.708;9.706;2023-02-04T12:56:54;8.20;94.80
4433;DHT22;2229;48.708;9.706;2023-02-04T12:59:23;8.30;94.90
4433;DHT22;2229;48.708;9.706;2023-02-04T13:01:51;8.40;95.00
4433;DHT22;2229;48.708;9.706;2023-02-04T13:04:20;8.50;94.80
4433;DHT22;2229;48.708;9.706;2023-02-04T13:06:47;8.70;95.10
4433;DHT22;2229;48.708;9.706;2023-02-04T13:09:15;9.10;95.20
4433;DHT22;2229;48.708;9.706;2023-02-04T13:11:42;9.40;94.50
4433;DHT22;2229;48.708;9.706;2023-02-04T13:14:09;9.80;94.60
4433;DHT22;2229;48.708;9.706;2023-02-04T13:16:36;9.90;93.70
4433;DHT22;2229;48.708;9.706;2023-02-04T13:19:04;10.00;93.00
4433;DHT22;2229;48.708;9.706;2023-02-04T13:21:33;10.00;92.70
4433;DHT22;2229;48.708;9.706;2023-02-04T13:24:00;9.80;92.60
4433;DHT22;2229;48.708;9.706;2023-02-04T13:26:28;9.70;92.70
4433;DHT22;2229;48.708;9.706;2023-02-04T13:28:55;9.50;92.70
4433;DHT22;2229;48.708;9.706;2023-02-04T13:31:22;9.30;92.60
4433;DHT22;2229;48.708;9.706;2023-02-04T13:33:49;9.10;92.80
4433;DHT22;2229;48.708;9.706;2023-02-04T13:36:17;9.00;92.90
4433;DHT22;2229;48.708;9.706;2023-02-04T13:38:46;8.90;93.20
4433;DHT22;2229;48.708;9.706;2023-02-04T13:41:14;8.80;93.20
4433;DHT22;2229;48.708;9.706;2023-02-04T13:43:42;8.70;93.00
4433;DHT22;2229;48.708;9.706;2023-02-04T13:46:09;8.50;93.00
4433;DHT22;2229;48.708;9.706;2023-02-04T13:48:37;8.40;93.30
4433;DHT22;2229;48.708;9.706;2023-02-04T13:51:05;8.30;93.40
4433;DHT22;2229;48.708;9.706;2023-02-04T13:53:32;8.30;93.70
4433;DHT22;2229;48.708;9.706;2023-02-04T13:56:01;8.30;93.70
4433;DHT22;2229;48.708;9.706;2023-02-04T13:58:28;8.30;93.80
4433;DHT22;2229;48.708;9.706;2023-02-04T14:00:56;8.40;93.90
4433;DHT22;2229;48.708;9.706;2023-02-04T14:03:23;8.40;93.40
4433;DHT22;2229;48.708;9.706;2023-02-04T14:05:51;8.40;93.40
4433;DHT22;2229;48.708;9.706;2023-02-04T14:08:19;8.30;93.40
4433;DHT22;2229;48.708;9.706;2023-02-04T14:10:46;8.30;93.50
4433;DHT22;2229;48.708;9.706;2023-02-04T14:13:16;8.30;93.00
4433;DHT22;2229;48.708;9.706;2023-02-04T14:15:43;8.30;92.90
4433;DHT22;2229;48.708;9.706;2023-02-04T14:18:10;8.30;93.10
4433;DHT22;2229;48.708;9.706;2023-02-04T14:20:38;8.20;93.10
4433;DHT22;2229;48.708;9.706;2023-02-04T14:23:06;8.20;92.90
4433;DHT22;2229;48.708;9.706;2023-02-04T14:25:33;8.20;92.80
4433;DHT22;2229;48.708;9.706;2023-02-04T14:28:01;8.20;92.80
4433;DHT22;2229;48.708;9.706;2023-02-04T14:30:30;8.20;92.90
4433;DHT22;2229;48.708;9.706;2023-02-04T14:32:58;8.20;93.00
4433;DHT22;2229;48.708;9.706;2023-02-04T14:35:26;8.20;92.40
4433;DHT22;2229;48.708;9.706;2023-02-04T14:37:53;8.20;92.80
4433;DHT22;2229;48.708;9.706;2023-02-04T14:40:20;8.10;92.40
4433;DHT22;2229;48.708;9.706;2023-02-04T14:42:47;8.10;92.70
4433;DHT22;2229;48.708;9.706;2023-02-04T14:45:15;8.10;92.80
4433;DHT22;2229;48.708;9.706;2023-02-04T14:47:43;8.10;92.90
4433;DHT22;2229;48.708;9.706;2023-02-04T14:50:13;8.10;93.00
4433;DHT22;2229;48.708;9.706;2023-02-04T14:52:41;8.10;93.10
4433;DHT22;2229;48.708;9.706;2023-02-04T14:55:09;8.10;93.10
4433;DHT22;2229;48.708;9.706;2023-02-04T14:57:37;8.10;93.20
4433;DHT22;2229;48.708;9.706;2023-02-04T15:00:06;8.10;93.20
4433;DHT22;2229;48.708;9.706;2023-02-04T15:02:33;8.10;93.20
4433;DHT22;2229;48.708;9.706;2023-02-04T15:05:01;8.00;93.20
4433;DHT22;2229;48.708;9.706;2023-02-04T15:07:29;8.00;93.60
4433;DHT22;2229;48.708;9.706;2023-02-04T15:09:56;8.00;93.40
4433;DHT22;2229;48.708;9.706;2023-02-04T15:12:23;7.90;93.40
4433;DHT22;2229;48.708;9.706;2023-02-04T15:14:50;7.90;93.40
4433;DHT22;2229;48.708;9.706;2023-02-04T15:17:18;7.80;93.40
4433;DHT22;2229;48.708;9.706;2023-02-04T15:19:45;7.80;93.50
4433;DHT22;2229;48.708;9.706;2023-02-04T15:22:13;7.70;93.50
4433;DHT22;2229;48.708;9.706;2023-02-04T15:24:41;7.70;93.60
4433;DHT22;2229;48.708;9.706;2023-02-04T15:27:08;7.60;93.70
4433;DHT22;2229;48.708;9.706;2023-02-04T15:29:35;7.60;93.80
4433;DHT22;2229;48.708;9.706;2023-02-04T15:32:02;7.50;93.70
4433;DHT22;2229;48.708;9.706;2023-02-04T15:34:30;7.50;93.70
4433;DHT22;2229;48.708;9.706;2023-02-04T15:36:57;7.50;93.80
4433;DHT22;2229;48.708;9.706;2023-02-04T15:39:26;7.40;93.80
4433;DHT22;2229;48.708;9.706;2023-02-04T15:41:53;7.40;94.00
4433;DHT22;2229;48.708;9.706;2023-02-04T15:44:20;7.30;93.90
4433;DHT22;2229;48.708;9.706;2023-02-04T15:46:49;7.20;93.70
4433;DHT22;2229;48.708;9.706;2023-02-04T15:49:16;7.10;93.80
4433;DHT22;2229;48.708;9.706;2023-02-04T15:51:44;7.10;93.80
4433;DHT22;2229;48.708;9.706;2023-02-04T15:54:12;7.10;93.80
4433;DHT22;2229;48.708;9.706;2023-02-04T15:56:41;7.10;93.80
4433;DHT22;2229;48.708;9.706;2023-02-04T15:59:08;7.10;93.80
4433;DHT22;2229;48.708;9.706;2023-02-04T16:01:35;7.00;93.80
4433;DHT22;2229;48.708;9.706;2023-02-04T16:04:02;7.00;93.80
4433;DHT22;2229;48.708;9.706;2023-02-04T16:06:31;6.90;93.90
4433;DHT22;2229;48.708;9.706;2023-02-04T16:08:58;6.90;93.90
4433;DHT22;2229;48.708;9.706;2023-02-04T16:11:25;6.80;93.90
4433;DHT22;2229;48.708;9.706;2023-02-04T16:13:56;6.80;94.00
4433;DHT22;2229;48.708;9.706;2023-02-04T16:16:24;6.70;94.20
4433;DHT22;2229;48.708;9.706;2023-02-04T16:18:52;6.60;94.10
4433;DHT22;2229;48.708;9.706;2023-02-04T16:21:19;6.60;94.30
4433;DHT22;2229;48.708;9.706;2023-02-04T16:23:46;6.50;94.30
4433;DHT22;2229;48.708;9.706;2023-02-04T16:26:13;6.40;94.30